Time;durP1;ratioP1;P1;durP2;ratioP2;P2;SDS_P1;SDS_P2;PMS_P1;PMS_P2;Temp;Humidity;BMP_temperature;BMP_pressure;BME280_temperature;BME280_humidity;BME280_pressure;Samples;Min_cycle;Max_cycle;Signal;HPM_P1;HPM_P2
2022/02/02 00:00:37;;;;;;;19.07;9.67;;;1.50;99.90;;;;;;5141907;27;20643;-70
2022/02/02 00:03:09;;;;;;;14.90;9.77;;;1.60;99.90;;;;;;5141322;27;20286;-68
2022/02/02 00:05:46;;;;;;;12.33;8.77;;;1.60;99.90;;;;;;5147019;27;20557;-69
2022/02/02 00:08:19;;;;;;;15.23;8.63;;;1.60;99.90;;;;;;5140902;27;20241;-69
2022/02/02 00:11:22;;;;;;;12.60;7.47;;;1.70;99.90;;;;;;5137454;27;20199;-70
2022/02/02 00:13:56;;;;;;;14.80;8.43;;;1.60;99.90;;;;;;5131221;27;20244;-69
2022/02/02 00:16:41;;;;;;;12.97;7.90;;;1.60;99.90;;;;;;5135776;27;20221;-71
2022/02/02 00:19:16;;;;;;;14.43;9.10;;;1.60;99.90;;;;;;5141817;27;20680;-70
2022/02/02 00:21:46;;;;;;;12.23;7.77;;;1.50;99.90;;;;;;5137057;27;20198;-69
2022/02/02 00:24:21;;;;;;;14.33;9.20;;;1.60;99.90;;;;;;5140934;27;20290;-70
2022/02/02 00:26:53;;;;;;;11.43;7.30;;;1.70;99.90;;;;;;5136091;27;20256;-70
2022/02/02 00:29:23;;;;;;;10.57;7.80;;;1.70;99.90;;;;;;5137146;27;20262;-70
2022/02/02 00:31:58;;;;;;;11.70;7.47;;;1.70;99.90;;;;;;5122133;27;20231;-68
2022/02/02 00:34:28;;;;;;;12.07;7.83;;;1.80;99.90;;;;;;5138187;27;20251;-69
2022/02/02 00:36:57;;;;;;;12.63;7.20;;;1.70;99.90;;;;;;5122166;27;20208;-69
2022/02/02 00:39:24;;;;;;;10.97;7.13;;;1.80;99.90;;;;;;5137143;27;20232;-69
2022/02/02 00:41:53;;;;;;;12.83;7.03;;;1.80;99.90;;;;;;5135211;27;20205;-70
2022/02/02 00:44:20;;;;;;;11.27;7.43;;;1.80;99.90;;;;;;5132779;27;20227;-69
2022/02/02 00:46:48;;;;;;;9.53;6.20;;;1.80;99.90;;;;;;5128663;27;20268;-69
2022/02/02 00:49:16;;;;;;;10.90;6.47;;;1.80;99.90;;;;;;5127222;27;20298;-70
2022/02/02 00:51:45;;;;;;;8.27;6.27;;;1.90;99.90;;;;;;5122810;27;20297;-69
2022/02/02 00:54:13;;;;;;;10.33;6.70;;;1.90;99.90;;;;;;5136713;27;20203;-69
2022/02/02 00:56:40;;;;;;;7.73;5.87;;;1.80;99.90;;;;;;5135826;27;20212;-69
2022/02/02 00:59:07;;;;;;;9.40;6.27;;;1.80;99.90;;;;;;5137272;27;20218;-68
2022/02/02 01:01:34;;;;;;;9.43;6.00;;;1.90;99.90;;;;;;5130281;27;20214;-69
2022/02/02 01:04:00;;;;;;;10.13;5.73;;;1.80;99.90;;;;;;5124509;27;20203;-69
2022/02/02 01:06:32;;;;;;;7.80;5.40;;;1.80;99.90;;;;;;5117694;27;20282;-70
2022/02/02 01:09:18;;;;;;;11.77;6.60;;;1.80;99.90;;;;;;5142177;27;20234;-69
2022/02/02 01:12:05;;;;;;;8.50;5.87;;;1.80;99.90;;;;;;5131067;27;20199;-70
2022/02/02 01:17:44;;;;;;;7.87;5.27;;;1.90;99.90;;;;;;5141192;27;20227;-69
2022/02/02 01:20:29;;;;;;;5.90;4.33;;;1.90;99.90;;;;;;5128883;27;20210;-69
2022/02/02 01:28:27;;;;;;;9.43;5.03;;;1.90;99.90;;;;;;5128862;27;20194;-70
2022/02/02 01:30:55;;;;;;;8.20;5.03;;;2.00;99.90;;;;;;5136333;27;20589;-69
2022/02/02 01:33:22;;;;;;;5.77;4.10;;;2.00;99.90;;;;;;5137324;27;20566;-69
2022/02/02 01:35:50;;;;;;;6.87;4.07;;;2.00;99.90;;;;;;5135324;27;20199;-69
2022/02/02 01:38:19;;;;;;;6.17;4.43;;;2.00;99.90;;;;;;5136576;27;20240;-70
2022/02/02 01:40:51;;;;;;;6.73;4.30;;;2.10;99.90;;;;;;5142761;27;20207;-69
2022/02/02 01:43:21;;;;;;;6.03;4.03;;;2.10;99.90;;;;;;5134039;27;20225;-68
2022/02/02 01:45:52;;;;;;;6.70;4.43;;;2.10;99.90;;;;;;5119014;27;20576;-68
2022/02/02 01:48:28;;;;;;;6.37;4.20;;;2.10;99.90;;;;;;5131978;27;20204;-69
2022/02/02 01:51:06;;;;;;;5.20;3.80;;;2.10;99.90;;;;;;5136642;27;20213;-68
2022/02/02 01:53:45;;;;;;;5.97;4.07;;;2.10;99.90;;;;;;5135854;27;20218;-69
2022/02/02 01:56:14;;;;;;;5.80;3.60;;;2.10;99.90;;;;;;5134639;27;20227;-69
2022/02/02 01:59:00;;;;;;;6.30;3.80;;;2.20;99.90;;;;;;5134046;27;20279;-69
2022/02/02 02:01:28;;;;;;;7.83;3.57;;;2.20;99.90;;;;;;5134280;27;20204;-70
2022/02/02 02:03:56;;;;;;;5.83;3.63;;;2.20;99.90;;;;;;5137285;27;20746;-68
2022/02/02 02:06:22;;;;;;;4.40;3.60;;;2.20;99.90;;;;;;5137080;27;20290;-69
2022/02/02 02:08:51;;;;;;;3.87;2.90;;;2.20;99.90;;;;;;5136397;27;20213;-69
2022/02/02 02:11:20;;;;;;;5.07;3.60;;;2.30;99.90;;;;;;5128362;27;20496;-69
2022/02/02 02:16:34;;;;;;;3.87;3.20;;;2.40;99.90;;;;;;5126774;27;20302;-69
2022/02/02 02:19:01;;;;;;;6.23;4.13;;;2.30;99.90;;;;;;5131207;27;20286;-69
2022/02/02 02:21:28;;;;;;;4.00;3.20;;;2.40;99.90;;;;;;5133514;27;20682;-68
2022/02/02 02:23:58;;;;;;;4.83;3.03;;;2.40;99.90;;;;;;5128655;27;20203;-69
2022/02/02 02:26:28;;;;;;;4.57;3.30;;;2.50;99.90;;;;;;5129221;27;20697;-69
2022/02/02 02:29:14;;;;;;;4.90;3.60;;;2.40;99.90;;;;;;5140899;27;20214;-69
2022/02/02 02:31:51;;;;;;;5.70;3.60;;;2.40;99.90;;;;;;5132760;27;20210;-68
2022/02/02 02:34:31;;;;;;;4.43;3.33;;;2.40;99.90;;;;;;5130036;27;20271;-69
2022/02/02 02:37:17;;;;;;;5.87;3.63;;;2.40;99.90;;;;;;5127898;27;20206;-69
2022/02/02 02:39:55;;;;;;;4.47;3.50;;;2.40;99.90;;;;;;5122498;27;20358;-69
2022/02/02 02:56:18;;;;;;;4.47;3.50;;;2.40;99.90;;;;;;5137218;27;20280;-68
2022/02/02 02:58:57;;;;;;;4.03;3.07;;;2.30;99.90;;;;;;5132326;27;20587;-68
2022/02/02 03:01:41;;;;;;;4.63;3.80;;;2.30;99.90;;;;;;5130466;27;20195;-69
2022/02/02 03:32:01;;;;;;;6.17;4.83;;;2.20;99.90;;;;;;5126298;28;20194;-69
2022/02/02 03:34:53;;;;;;;6.57;4.50;;;2.30;99.90;;;;;;5130056;28;20663;-69
2022/02/02 03:51:25;;;;;;;8.57;5.90;;;2.50;99.90;;;;;;5126422;27;20266;-69
2022/02/02 03:54:28;;;;;;;8.07;5.80;;;2.60;99.90;;;;;;5129577;28;20293;-69
2022/02/02 03:57:20;;;;;;;9.57;6.03;;;2.70;99.90;;;;;;5135105;27;20251;-69
2022/02/02 03:59:59;;;;;;;9.17;5.50;;;2.70;99.90;;;;;;5138555;27;20227;-69
2022/02/02 04:02:45;;;;;;;7.83;5.03;;;2.80;99.90;;;;;;5135484;27;20195;-69
2022/02/02 04:05:26;;;;;;;9.40;5.47;;;2.80;99.90;;;;;;5128348;27;20222;-70
2022/02/02 04:08:05;;;;;;;7.23;5.10;;;2.90;99.90;;;;;;5151807;27;20228;-69
2022/02/02 04:10:32;;;;;;;8.57;5.03;;;2.90;99.90;;;;;;5156623;27;20356;-70
2022/02/02 04:13:09;;;;;;;9.77;5.57;;;3.00;99.90;;;;;;5132087;27;20227;-70
2022/02/02 04:51:56;;;;;;;7.93;4.80;;;3.20;99.90;;;;;;5138464;27;20260;-69
2022/02/02 04:54:31;;;;;;;8.43;4.40;;;3.20;99.90;;;;;;5137865;27;20219;-68
2022/02/02 05:00:03;;;;;;;9.73;5.47;;;3.20;99.90;;;;;;5139390;27;20197;-69
2022/02/02 05:05:48;;;;;;;8.90;5.00;;;3.20;99.90;;;;;;5081234;28;20205;-70
2022/02/02 05:08:23;;;;;;;9.83;4.53;;;3.30;99.90;;;;;;5092381;28;20638;-70
2022/02/02 05:11:05;;;;;;;7.13;4.87;;;3.30;99.90;;;;;;5116469;27;21353;-70
2022/02/02 05:16:40;;;;;;;10.03;5.30;;;3.30;99.90;;;;;;5132499;27;20195;-70
2022/02/02 05:19:57;;;;;;;10.63;4.30;;;3.30;99.90;;;;;;5133611;27;20626;-69
2022/02/02 05:44:56;;;;;;;8.70;3.97;;;3.40;99.90;;;;;;5099993;27;20211;-67
2022/02/02 05:50:28;;;;;;;5.27;3.33;;;3.40;99.90;;;;;;5130743;27;20191;-68
2022/02/02 05:52:57;;;;;;;7.53;3.63;;;3.50;99.90;;;;;;5146910;27;20212;-69
2022/02/02 05:55:24;;;;;;;4.50;3.40;;;3.50;99.90;;;;;;5131261;27;20210;-68
2022/02/02 05:57:56;;;;;;;4.73;3.57;;;3.50;99.90;;;;;;5143400;27;20233;-69
2022/02/02 06:00:23;;;;;;;8.27;3.90;;;3.50;99.90;;;;;;5133649;27;20690;-69
2022/02/02 06:02:55;;;;;;;7.40;3.53;;;3.50;99.90;;;;;;5135767;27;20214;-69
2022/02/02 06:05:26;;;;;;;5.93;3.63;;;3.50;99.90;;;;;;5134985;27;20657;-68
2022/02/02 06:07:55;;;;;;;8.67;3.23;;;3.50;99.90;;;;;;5144222;27;20234;-68
2022/02/02 06:10:24;;;;;;;8.40;3.43;;;3.50;99.90;;;;;;5136026;27;20262;-70
2022/02/02 06:12:53;;;;;;;7.77;3.47;;;3.50;99.90;;;;;;5136920;27;20218;-69
2022/02/02 06:15:22;;;;;;;7.73;3.30;;;3.50;99.90;;;;;;5135952;27;20206;-68
2022/02/02 06:17:51;;;;;;;5.90;3.77;;;3.50;99.90;;;;;;5138603;27;20652;-69
2022/02/02 06:20:18;;;;;;;9.37;3.80;;;3.50;99.90;;;;;;5135129;27;20709;-68
2022/02/02 06:22:53;;;;;;;9.70;3.57;;;3.50;99.90;;;;;;5134674;27;20729;-68
2022/02/02 06:25:23;;;;;;;6.50;3.20;;;3.50;99.90;;;;;;5134494;27;20218;-69
2022/02/02 06:27:58;;;;;;;10.70;3.33;;;3.50;99.90;;;;;;5123758;27;20191;-68
2022/02/02 06:30:26;;;;;;;5.20;3.17;;;3.50;99.90;;;;;;5138279;27;20210;-68
2022/02/02 06:32:56;;;;;;;8.67;3.63;;;3.50;99.90;;;;;;5136585;27;20212;-69
2022/02/02 06:35:23;;;;;;;6.30;3.30;;;3.60;99.90;;;;;;5136537;27;20345;-70
2022/02/02 06:37:51;;;;;;;6.27;3.43;;;3.60;99.90;;;;;;5137752;27;20203;-68
2022/02/02 06:40:20;;;;;;;7.27;3.13;;;3.60;99.90;;;;;;5125404;27;20656;-68
2022/02/02 06:42:47;;;;;;;8.20;3.50;;;3.60;99.90;;;;;;5132740;27;20203;-68
2022/02/02 06:45:15;;;;;;;10.67;3.40;;;3.60;99.90;;;;;;5145188;27;20191;-67
2022/02/02 06:47:44;;;;;;;7.97;3.40;;;3.60;99.90;;;;;;5136516;27;20254;-69
2022/02/02 06:50:16;;;;;;;8.03;3.63;;;3.60;99.90;;;;;;5137930;27;20237;-67
2022/02/02 06:52:50;;;;;;;4.60;3.47;;;3.60;99.90;;;;;;5128377;27;20210;-70
2022/02/02 06:55:29;;;;;;;8.00;3.97;;;3.60;99.90;;;;;;5124775;27;20215;-68
2022/02/02 06:58:16;;;;;;;6.47;3.87;;;3.60;99.90;;;;;;5131978;27;20226;-69
2022/02/02 07:01:01;;;;;;;7.20;3.70;;;3.60;99.90;;;;;;5138784;27;20275;-72
2022/02/02 07:03:51;;;;;;;8.30;3.97;;;3.60;99.90;;;;;;5137722;27;20191;-69
2022/02/02 07:06:33;;;;;;;11.17;3.73;;;3.60;99.90;;;;;;5119471;27;20203;-69
2022/02/02 07:09:16;;;;;;;5.63;3.13;;;3.60;99.90;;;;;;5133371;27;20207;-68
2022/02/02 07:12:04;;;;;;;8.50;3.53;;;3.60;99.90;;;;;;5131334;27;20230;-68
2022/02/02 07:14:43;;;;;;;6.07;3.30;;;3.60;99.90;;;;;;5135200;27;20303;-68
2022/02/02 07:17:31;;;;;;;4.40;2.93;;;3.60;99.90;;;;;;5143026;27;20202;-69
2022/02/02 07:20:08;;;;;;;8.70;4.10;;;3.60;99.90;;;;;;5135377;27;20191;-69
2022/02/02 07:28:21;;;;;;;4.97;3.40;;;3.60;99.90;;;;;;5101946;28;20200;-65
2022/02/02 07:30:58;;;;;;;9.13;3.87;;;3.60;99.90;;;;;;5141877;27;20251;-67
2022/02/02 07:33:34;;;;;;;7.33;3.93;;;3.60;99.90;;;;;;5139785;27;20220;-67
2022/02/02 07:36:09;;;;;;;6.17;3.50;;;3.60;99.90;;;;;;5138765;27;20203;-67
2022/02/02 07:38:50;;;;;;;10.40;3.50;;;3.60;99.90;;;;;;5142484;27;20199;-67
2022/02/02 07:41:25;;;;;;;9.13;3.83;;;3.60;99.90;;;;;;5141786;27;20691;-67
2022/02/02 07:43:55;;;;;;;5.37;2.90;;;3.60;99.90;;;;;;5139258;27;20195;-67
2022/02/02 07:46:27;;;;;;;9.47;3.30;;;3.60;99.90;;;;;;5137701;27;20210;-67
2022/02/02 07:48:55;;;;;;;7.73;3.17;;;3.60;99.90;;;;;;5139938;27;20263;-66
2022/02/02 07:51:26;;;;;;;10.57;3.50;;;3.60;99.90;;;;;;5137466;27;20213;-70
2022/02/02 07:53:58;;;;;;;7.03;3.10;;;3.60;99.90;;;;;;5133526;27;20210;-70
2022/02/02 07:56:34;;;;;;;7.93;3.63;;;3.60;99.90;;;;;;5140680;27;20219;-69
2022/02/02 07:59:15;;;;;;;5.80;3.07;;;3.60;99.90;;;;;;5143412;27;20202;-69
2022/02/02 08:01:43;;;;;;;8.30;3.83;;;3.60;99.90;;;;;;5140197;27;20199;-68
2022/02/02 08:04:13;;;;;;;7.47;3.57;;;3.70;99.90;;;;;;5144587;27;20199;-69
2022/02/02 08:06:41;;;;;;;6.97;3.03;;;3.70;99.90;;;;;;5140061;27;20273;-71
2022/02/02 08:09:13;;;;;;;5.80;3.00;;;3.60;99.90;;;;;;5145006;27;20206;-70
2022/02/02 08:11:40;;;;;;;12.17;4.00;;;3.70;99.90;;;;;;5139944;27;20211;-67
2022/02/02 08:14:07;;;;;;;6.53;3.23;;;3.70;99.90;;;;;;5145279;27;20252;-68
2022/02/02 08:16:37;;;;;;;9.10;3.90;;;3.70;99.90;;;;;;5137094;27;20207;-66
2022/02/02 08:19:04;;;;;;;7.67;3.13;;;3.60;99.90;;;;;;5139884;27;20203;-66
2022/02/02 08:21:32;;;;;;;5.93;3.00;;;3.60;99.90;;;;;;5138856;27;20199;-67
2022/02/02 08:23:59;;;;;;;4.57;2.83;;;3.60;99.90;;;;;;5130678;27;20458;-66
2022/02/02 08:26:26;;;;;;;5.00;2.97;;;3.60;99.90;;;;;;5123380;27;20287;-68
2022/02/02 08:28:57;;;;;;;4.33;2.97;;;3.60;99.90;;;;;;5131632;27;20203;-69
2022/02/02 08:31:27;;;;;;;9.03;3.00;;;3.60;99.90;;;;;;5134484;27;20204;-67
2022/02/02 08:33:57;;;;;;;4.73;2.77;;;3.60;99.90;;;;;;5145813;27;20230;-67
2022/02/02 08:36:25;;;;;;;11.40;3.43;;;3.60;99.90;;;;;;5142617;27;20205;-68
2022/02/02 08:39:02;;;;;;;6.23;2.73;;;3.60;99.90;;;;;;5141661;27;20214;-69
2022/02/02 08:41:32;;;;;;;7.97;2.90;;;3.60;99.90;;;;;;5147400;27;20230;-67
2022/02/02 08:44:03;;;;;;;5.83;2.90;;;3.60;99.90;;;;;;5144435;27;20195;-67
2022/02/02 08:46:33;;;;;;;5.10;2.90;;;3.60;99.90;;;;;;5141752;27;20225;-67
2022/02/02 08:49:03;;;;;;;5.00;2.90;;;3.60;99.90;;;;;;5139894;27;20239;-67
2022/02/02 08:51:37;;;;;;;5.63;3.10;;;3.60;99.90;;;;;;5140932;27;20224;-71
2022/02/02 08:54:17;;;;;;;6.10;3.37;;;3.60;99.90;;;;;;5140616;27;20217;-69
2022/02/02 08:59:39;;;;;;;6.80;3.23;;;3.60;99.90;;;;;;5139378;27;20195;-75
2022/02/02 09:02:10;;;;;;;10.00;3.50;;;3.60;99.90;;;;;;5142225;27;20203;-73
2022/02/02 09:07:22;;;;;;;5.10;2.83;;;3.60;99.90;;;;;;5139271;27;20248;-70
2022/02/02 09:10:04;;;;;;;4.87;2.40;;;3.60;99.90;;;;;;5138558;27;20298;-71
2022/02/02 09:23:56;;;;;;;4.63;2.20;;;3.60;99.90;;;;;;5096633;27;20204;-71
2022/02/02 09:31:25;;;;;;;4.90;2.33;;;3.60;99.90;;;;;;5131000;27;20222;-72
2022/02/02 09:34:38;;;;;;;3.47;2.33;;;3.60;99.90;;;;;;5138615;27;20218;-71
2022/02/02 09:37:05;;;;;;;3.93;2.07;;;3.60;99.90;;;;;;5133828;27;20235;-69
2022/02/02 09:39:38;;;;;;;2.00;1.77;;;3.60;99.90;;;;;;5129990;27;20294;-71
2022/02/02 09:42:11;;;;;;;3.00;1.83;;;3.60;99.90;;;;;;5138184;27;20203;-70
2022/02/02 09:44:41;;;;;;;2.43;2.03;;;3.60;99.90;;;;;;5136074;27;20200;-71
2022/02/02 09:47:18;;;;;;;2.70;1.70;;;3.50;99.90;;;;;;5136141;27;20191;-71
2022/02/02 09:49:53;;;;;;;2.50;1.87;;;3.50;99.90;;;;;;5136778;27;20191;-69
2022/02/02 09:52:23;;;;;;;5.40;2.80;;;3.50;99.90;;;;;;5136214;27;20603;-70
2022/02/02 09:55:00;;;;;;;3.80;2.00;;;3.50;99.90;;;;;;5139115;27;20215;-70
2022/02/02 10:00:21;;;;;;;2.97;2.10;;;3.50;99.90;;;;;;5138860;27;20199;-69
2022/02/02 10:05:59;;;;;;;4.20;2.40;;;3.50;99.90;;;;;;5119789;27;20752;-68
2022/02/02 10:08:59;;;;;;;2.73;2.17;;;3.50;99.90;;;;;;5134329;27;20679;-69
2022/02/02 10:14:15;;;;;;;5.10;2.57;;;3.50;99.90;;;;;;5125447;27;20198;-67
2022/02/02 10:16:44;;;;;;;4.63;2.27;;;3.50;99.90;;;;;;5120349;27;20234;-68
2022/02/02 10:19:16;;;;;;;2.60;2.40;;;3.50;99.90;;;;;;5134982;27;20210;-69
2022/02/02 10:21:43;;;;;;;2.60;2.00;;;3.50;99.90;;;;;;5138650;27;20267;-68
2022/02/02 10:24:10;;;;;;;2.63;2.37;;;3.50;99.90;;;;;;5142261;27;20231;-68
2022/02/02 10:26:45;;;;;;;3.07;2.30;;;3.40;99.90;;;;;;5129173;27;20290;-68
2022/02/02 10:29:15;;;;;;;5.07;2.80;;;3.50;99.90;;;;;;5138234;27;20194;-69
2022/02/02 10:31:44;;;;;;;5.40;2.53;;;3.50;99.90;;;;;;5136652;27;20208;-69
2022/02/02 10:34:13;;;;;;;3.17;2.40;;;3.50;99.90;;;;;;5124086;27;20227;-68
2022/02/02 10:36:40;;;;;;;3.03;2.40;;;3.50;99.90;;;;;;5121243;27;20207;-67
2022/02/02 10:39:11;;;;;;;3.17;2.37;;;3.40;99.90;;;;;;5136716;27;20472;-66
2022/02/02 10:41:49;;;;;;;2.40;2.20;;;3.50;99.90;;;;;;5142506;27;20664;-68
2022/02/02 10:44:23;;;;;;;3.37;2.67;;;3.50;99.90;;;;;;5131781;27;20227;-68
2022/02/02 10:46:59;;;;;;;3.87;2.60;;;3.50;99.90;;;;;;5130483;27;20206;-67
2022/02/02 10:49:34;;;;;;;3.77;2.20;;;3.50;99.90;;;;;;5134497;27;20207;-67
2022/02/02 10:52:07;;;;;;;2.77;2.20;;;3.50;99.90;;;;;;5118243;27;20186;-66
2022/02/02 10:54:41;;;;;;;4.10;2.60;;;3.40;99.90;;;;;;5135929;27;20245;-66
2022/02/02 10:57:16;;;;;;;2.77;2.40;;;3.40;99.90;;;;;;5124827;27;20219;-66
2022/02/02 11:00:02;;;;;;;4.10;2.63;;;3.40;99.90;;;;;;5137744;27;20191;-67
2022/02/02 11:08:00;;;;;;;3.90;2.83;;;3.40;99.90;;;;;;5121337;28;20285;-66
2022/02/02 11:10:30;;;;;;;3.03;2.50;;;3.40;99.90;;;;;;5133219;27;20552;-67
2022/02/02 11:12:58;;;;;;;3.13;2.60;;;3.40;99.90;;;;;;5128802;27;20202;-65
2022/02/02 11:15:33;;;;;;;3.33;2.53;;;3.40;99.90;;;;;;5134604;27;20397;-66
2022/02/02 11:18:08;;;;;;;3.00;2.43;;;3.40;99.90;;;;;;5121424;27;20199;-66
2022/02/02 11:20:38;;;;;;;2.93;2.37;;;3.40;99.90;;;;;;5140356;27;20682;-66
2022/02/02 11:23:06;;;;;;;3.43;2.67;;;3.40;99.90;;;;;;5123286;27;20204;-68
2022/02/02 11:25:38;;;;;;;3.33;2.23;;;3.40;99.90;;;;;;5124236;28;20204;-67
2022/02/02 11:28:21;;;;;;;4.20;3.10;;;3.40;99.90;;;;;;5135505;27;20207;-66
2022/02/02 11:30:50;;;;;;;2.60;2.30;;;3.40;99.90;;;;;;5144188;27;20214;-66
2022/02/02 11:33:24;;;;;;;3.20;2.63;;;3.40;99.90;;;;;;5132284;28;20243;-67
2022/02/02 11:35:55;;;;;;;4.07;2.30;;;3.40;99.90;;;;;;5126153;28;20214;-66
2022/02/02 11:38:39;;;;;;;2.93;2.20;;;3.30;99.90;;;;;;5124635;27;20191;-67
2022/02/02 11:41:40;;;;;;;4.47;3.10;;;3.30;99.90;;;;;;5141391;27;20211;-66
2022/02/02 11:44:16;;;;;;;4.07;2.60;;;3.30;99.90;;;;;;5125362;27;20199;-68
2022/02/02 11:46:58;;;;;;;3.17;2.50;;;3.20;99.90;;;;;;5129124;27;20200;-66
2022/02/02 11:49:43;;;;;;;4.57;2.53;;;3.10;99.90;;;;;;5147922;27;20232;-67
2022/02/02 11:52:40;;;;;;;3.60;2.60;;;3.10;99.90;;;;;;5133542;28;20218;-66
2022/02/02 11:55:28;;;;;;;4.50;2.67;;;2.70;99.90;;;;;;5125781;27;20736;-68
2022/02/02 11:57:58;;;;;;;3.40;3.00;;;2.90;99.90;;;;;;5123121;28;20266;-67
2022/02/02 12:00:37;;;;;;;4.27;3.27;;;2.90;99.90;;;;;;5134433;28;20202;-68
2022/02/02 12:03:22;;;;;;;3.97;3.23;;;2.90;99.90;;;;;;5126875;28;20221;-68
2022/02/02 12:06:01;;;;;;;3.27;2.97;;;2.80;99.90;;;;;;5133099;28;20241;-68
2022/02/02 12:08:45;;;;;;;4.30;3.27;;;2.80;99.90;;;;;;5132192;27;20697;-68
2022/02/02 12:11:47;;;;;;;4.17;3.43;;;2.70;99.90;;;;;;5130535;27;20210;-68
2022/02/02 12:45:24;;;;;;;9.53;6.50;;;2.40;99.90;;;;;;5139258;27;20198;-67
2022/02/02 12:47:58;;;;;;;7.90;6.63;;;2.30;99.90;;;;;;5131687;27;20901;-67
2022/02/02 12:56:23;;;;;;;10.07;7.50;;;2.40;99.90;;;;;;5134565;27;20225;-68
2022/02/02 12:58:51;;;;;;;10.97;7.50;;;2.40;99.90;;;;;;5132021;27;20203;-67
2022/02/02 13:01:20;;;;;;;10.57;7.97;;;2.40;99.90;;;;;;5130401;27;20207;-68
2022/02/02 13:03:48;;;;;;;11.10;7.90;;;2.40;99.90;;;;;;5132720;27;20302;-67
2022/02/02 13:06:17;;;;;;;12.23;8.03;;;2.40;99.90;;;;;;5136477;27;20238;-68
2022/02/02 13:08:48;;;;;;;14.77;8.87;;;2.40;99.90;;;;;;5136773;27;20225;-67
2022/02/02 13:11:21;;;;;;;12.27;8.40;;;2.50;99.90;;;;;;5134709;27;20206;-66
2022/02/02 13:13:49;;;;;;;12.93;9.00;;;2.50;99.90;;;;;;5132202;27;20293;-67
2022/02/02 13:16:24;;;;;;;14.37;8.83;;;2.50;99.90;;;;;;5133275;27;20234;-67
2022/02/02 13:18:55;;;;;;;13.93;9.80;;;2.50;99.90;;;;;;5138460;27;20568;-67
2022/02/02 13:21:27;;;;;;;13.20;8.93;;;2.50;99.90;;;;;;5134343;27;20218;-65
2022/02/02 13:24:02;;;;;;;15.33;9.93;;;2.70;99.90;;;;;;5135623;27;20290;-66
2022/02/02 13:26:34;;;;;;;14.97;10.10;;;2.50;99.90;;;;;;5140152;27;20186;-66
2022/02/02 13:29:08;;;;;;;19.33;11.43;;;2.60;99.90;;;;;;5129221;27;20214;-66
2022/02/02 13:32:02;;;;;;;16.03;11.37;;;2.60;99.90;;;;;;5136933;27;20206;-66
2022/02/02 13:34:40;;;;;;;16.73;11.23;;;2.50;99.90;;;;;;5131187;27;20207;-68
2022/02/02 13:43:10;;;;;;;17.57;11.20;;;2.60;99.90;;;;;;5137142;27;20721;-67
2022/02/02 13:51:29;;;;;;;17.90;12.23;;;2.70;99.90;;;;;;5132425;27;20696;-67
2022/02/02 13:54:32;;;;;;;18.77;12.57;;;2.80;99.90;;;;;;5126620;27;20225;-67
2022/02/02 13:57:30;;;;;;;19.13;12.83;;;2.70;99.90;;;;;;5135068;27;20636;-66
2022/02/02 14:05:52;;;;;;;19.63;12.97;;;2.80;99.90;;;;;;5126619;27;20316;-67
2022/02/02 14:11:10;;;;;;;20.73;13.20;;;2.90;99.90;;;;;;5109596;27;20704;-68
2022/02/02 14:32:52;;;;;;;16.87;12.47;;;3.10;99.90;;;;;;5133163;27;20202;-65
2022/02/02 14:35:19;;;;;;;19.30;13.77;;;3.10;99.90;;;;;;5126611;27;20628;-65
2022/02/02 14:37:48;;;;;;;19.33;13.30;;;3.10;99.90;;;;;;5131292;27;20196;-68
2022/02/02 14:40:23;;;;;;;19.73;12.73;;;3.10;99.90;;;;;;5140667;27;20212;-68
2022/02/02 14:42:53;;;;;;;20.73;13.03;;;3.10;99.90;;;;;;5134260;27;20219;-67
2022/02/02 14:45:25;;;;;;;19.27;12.93;;;3.10;99.90;;;;;;5130172;27;20208;-68
2022/02/02 14:47:58;;;;;;;16.67;12.33;;;3.10;99.90;;;;;;5136293;27;20499;-67
2022/02/02 14:50:30;;;;;;;18.47;13.13;;;3.00;99.90;;;;;;5135226;27;20200;-66
2022/02/02 14:53:10;;;;;;;20.33;12.97;;;3.20;99.90;;;;;;5135517;27;20203;-67
2022/02/02 15:09:44;;;;;;;20.17;12.47;;;3.10;99.90;;;;;;5135300;27;20203;-69
2022/02/02 15:29:10;;;;;;;18.83;14.77;;;3.00;99.90;;;;;;5132812;27;20430;-66
2022/02/02 15:31:37;;;;;;;18.10;12.33;;;2.90;99.90;;;;;;5128123;28;20203;-65
2022/02/02 15:34:10;;;;;;;15.27;11.20;;;2.90;99.90;;;;;;5133057;27;20264;-65
2022/02/02 15:39:25;;;;;;;17.03;10.93;;;2.90;99.90;;;;;;5104422;28;20203;-65
2022/02/02 15:42:14;;;;;;;16.47;11.20;;;2.90;99.90;;;;;;5133900;28;20207;-65
2022/02/02 15:45:02;;;;;;;16.67;11.23;;;3.00;99.90;;;;;;5132975;27;20299;-65
2022/02/02 15:58:31;;;;;;;13.97;10.30;;;2.90;99.90;;;;;;5106061;27;20685;-65
2022/02/02 16:03:45;;;;;;;15.90;10.10;;;2.90;99.90;;;;;;5135513;27;20296;-66
2022/02/02 16:06:17;;;;;;;11.43;8.93;;;2.90;99.90;;;;;;5135211;27;20286;-66
2022/02/02 16:08:45;;;;;;;14.97;10.37;;;2.90;99.90;;;;;;5140179;27;20293;-69
2022/02/02 16:11:20;;;;;;;17.40;10.93;;;2.90;99.90;;;;;;5140264;27;20211;-69
2022/02/02 16:13:50;;;;;;;13.90;9.60;;;2.90;99.90;;;;;;5135712;27;20198;-68
2022/02/02 16:16:39;;;;;;;15.23;10.73;;;2.80;99.90;;;;;;5135689;27;20223;-68
2022/02/02 16:19:15;;;;;;;14.60;10.57;;;2.90;99.90;;;;;;5139247;27;20193;-67
2022/02/02 16:24:59;;;;;;;16.60;9.67;;;2.80;99.90;;;;;;5134247;27;20203;-67
2022/02/02 16:35:59;;;;;;;12.10;8.07;;;2.80;99.90;;;;;;5136641;27;20250;-68
2022/02/02 16:38:32;;;;;;;13.90;8.60;;;2.80;99.90;;;;;;5132555;27;20218;-68
2022/02/02 16:41:01;;;;;;;10.47;6.93;;;2.70;99.90;;;;;;5132078;27;20350;-67
2022/02/02 16:43:27;;;;;;;11.40;8.50;;;2.80;99.90;;;;;;5134689;27;20211;-67
2022/02/02 16:45:55;;;;;;;11.07;7.53;;;2.80;99.90;;;;;;5134926;27;20672;-67
2022/02/02 16:48:24;;;;;;;12.27;7.73;;;2.80;99.90;;;;;;5133060;27;20622;-68
2022/02/02 16:50:55;;;;;;;14.23;7.97;;;2.80;99.90;;;;;;5132552;27;20286;-66
2022/02/02 16:53:33;;;;;;;11.13;7.60;;;2.80;99.90;;;;;;5130728;27;20204;-66
2022/02/02 16:56:07;;;;;;;9.80;7.27;;;2.80;99.90;;;;;;5130027;27;20244;-67
2022/02/02 17:31:30;;;;;;;7.90;5.63;;;2.60;99.90;;;;;;5135153;27;20244;-69
2022/02/02 17:34:01;;;;;;;11.83;5.07;;;2.70;99.90;;;;;;5137960;27;20214;-68
2022/02/02 17:36:33;;;;;;;6.87;4.50;;;2.70;99.90;;;;;;5136659;27;20227;-69
2022/02/02 17:39:05;;;;;;;7.53;4.37;;;2.70;99.90;;;;;;5144323;27;20678;-69
2022/02/02 17:44:52;;;;;;;5.47;3.93;;;2.70;99.90;;;;;;5125781;27;20541;-70
2022/02/02 18:12:36;;;;;;;8.17;4.70;;;2.60;99.90;;;;;;5137103;27;20190;-71
2022/02/02 18:20:36;;;;;;;8.83;5.27;;;2.70;99.90;;;;;;5131672;27;20213;-70
2022/02/02 18:23:09;;;;;;;6.70;4.80;;;2.70;99.90;;;;;;5135361;27;20809;-69
2022/02/02 18:25:43;;;;;;;6.97;4.83;;;2.70;99.90;;;;;;5134683;27;20206;-70
2022/02/02 18:28:16;;;;;;;6.27;4.90;;;2.70;99.90;;;;;;5136500;27;20206;-68
2022/02/02 18:30:55;;;;;;;6.93;4.83;;;2.70;99.90;;;;;;5132237;27;20207;-69
2022/02/02 18:33:34;;;;;;;7.97;4.70;;;2.70;99.90;;;;;;5131837;27;20234;-68
2022/02/02 18:36:16;;;;;;;6.83;4.90;;;2.70;99.90;;;;;;5142416;27;20313;-69
2022/02/02 18:47:10;;;;;;;6.77;5.20;;;2.60;99.90;;;;;;5134235;27;20191;-69
2022/02/02 18:50:01;;;;;;;10.00;5.17;;;2.70;99.90;;;;;;5128287;27;20191;-68
2022/02/02 18:52:46;;;;;;;7.83;5.67;;;2.60;99.90;;;;;;5143395;27;20229;-68
2022/02/02 18:55:30;;;;;;;8.37;5.70;;;2.60;99.90;;;;;;5131365;27;20202;-69
2022/02/02 18:58:07;;;;;;;7.83;5.77;;;2.60;99.90;;;;;;5136133;27;20238;-72
2022/02/02 19:54:41;;;;;;;11.70;7.40;;;2.60;99.90;;;;;;5136783;27;20194;-68
2022/02/02 19:56:51;;;;;;;11.17;7.70;;;2.60;99.90;;;;;;5136784;27;20227;-69
2022/02/02 20:02:39;;;;;;;9.00;7.30;;;2.60;99.90;;;;;;5136616;27;20514;-68
2022/02/02 20:05:20;;;;;;;10.37;7.57;;;2.60;99.90;;;;;;5135100;27;20186;-68
2022/02/02 20:08:05;;;;;;;10.83;7.23;;;2.60;99.90;;;;;;5130823;27;20761;-68
2022/02/02 20:10:43;;;;;;;12.60;8.17;;;2.60;99.90;;;;;;5137191;27;20226;-68
2022/02/02 20:13:12;;;;;;;11.87;8.13;;;2.60;99.90;;;;;;5128498;27;20188;-68
2022/02/02 20:15:40;;;;;;;11.13;8.00;;;2.50;99.90;;;;;;5137010;27;20691;-67
2022/02/02 20:18:09;;;;;;;12.20;7.37;;;2.50;99.90;;;;;;5137736;27;20213;-68
2022/02/02 20:20:40;;;;;;;10.30;7.20;;;2.50;99.90;;;;;;5137023;27;20199;-68
2022/02/02 20:23:08;;;;;;;10.83;7.33;;;2.40;99.90;;;;;;5139227;27;20209;-69
2022/02/02 20:25:37;;;;;;;12.53;7.93;;;2.40;99.90;;;;;;5138417;27;20207;-68
2022/02/02 20:28:07;;;;;;;9.27;7.03;;;2.30;99.90;;;;;;5135722;27;20207;-68
2022/02/02 20:30:37;;;;;;;11.67;7.53;;;2.30;99.90;;;;;;5135791;27;20231;-67
2022/02/02 20:33:05;;;;;;;9.87;7.43;;;2.30;99.90;;;;;;5133504;27;20200;-68
2022/02/02 20:35:32;;;;;;;11.77;7.30;;;2.20;99.90;;;;;;5138375;27;20543;-69
2022/02/02 20:38:00;;;;;;;13.33;8.40;;;2.20;99.90;;;;;;5129882;27;20653;-69
2022/02/02 20:40:27;;;;;;;11.57;7.73;;;2.10;99.90;;;;;;5138423;27;20203;-69
2022/02/02 20:43:02;;;;;;;11.00;7.63;;;2.10;99.90;;;;;;5135558;27;20231;-69
2022/02/02 21:04:56;;;;;;;11.17;6.80;;;1.90;99.90;;;;;;5122576;27;20210;-70
2022/02/02 21:07:31;;;;;;;8.27;5.97;;;1.90;99.90;;;;;;5134149;27;20223;-70
2022/02/02 21:10:03;;;;;;;8.30;5.77;;;1.90;99.90;;;;;;5130642;27;20194;-71
2022/02/02 21:15:22;;;;;;;10.40;6.03;;;1.90;99.90;;;;;;5135407;27;20201;-70
2022/02/02 21:17:50;;;;;;;9.63;5.63;;;1.90;99.90;;;;;;5133719;27;20227;-69